WMSA/SZB METAR and TAF weather

Enter ICAO airport designator
Station Type Date Time Source
WMSA METAR 2020/12/05 06:00 UTC NOAA

WMSA 050600Z VRB03KT 9999 5000NW -SHRA FEW017CB SCT018 28/25 Q1010


Station Type Date Time Source
WMSA Decoded METAR 2020/12/05 06:00 UTC NOAA

Subang/Sultan Abdul Aziz Shah Airport, Malaysia (WMSA) 03-07N 101-32E
Dec 05, 2020 - 01:00 AM EST / 2020.12.05 0600 UTC
Wind: Variable at 3 MPH (3 KT):0
Visibility: greater than 7 mile(s):0
Sky conditions: partly cloudy
Weather: light rain showers; Cumulonimbus clouds observed
Temperature: 82 F (28 C)
Dew Point: 77 F (25 C)
Relative Humidity: 83%
Pressure (altimeter): 29.83 in. Hg (1010 hPa)
ob: WMSA 050600Z VRB03KT 9999 5000NW -SHRA FEW017CB SCT018 28/25 Q1010
cycle: 6

Station Type Date Time Source
WMSA TAF 2020/12/05 06:09 UTC NOAA

TAF WMSA 050413Z 0506/0606 VRB03KT 9999 FEW026 PROB30
TEMPO 0508/0512 07006KT 5000 TSRA FEW017CB SCT018 PROB30
TEMPO 0517/0521 4000 TSRA FEW010 FEW016CB SCT020

Example: see airport list